createdAt,value
2018-04-08T00:00:43.253Z,11.10
2018-04-08T00:03:10.925Z,10.90
2018-04-08T00:05:38.549Z,11.00
2018-04-08T00:08:06.883Z,11.10
2018-04-08T00:10:34.494Z,11.10
2018-04-08T00:13:02.162Z,10.80
2018-04-08T00:15:29.829Z,10.70
2018-04-08T00:17:57.442Z,10.70
2018-04-08T00:20:25.864Z,10.70
2018-04-08T00:22:53.528Z,11.00
2018-04-08T00:25:21.238Z,10.70
2018-04-08T00:27:48.852Z,10.90
2018-04-08T00:30:16.656Z,10.60
2018-04-08T00:32:44.316Z,10.80
2018-04-08T00:35:12.733Z,10.80
2018-04-08T00:37:40.392Z,10.70
2018-04-08T00:40:08.026Z,10.80
2018-04-08T00:42:35.677Z,10.80
2018-04-08T00:45:04.062Z,10.60
2018-04-08T00:47:32.482Z,10.40
2018-04-08T00:50:00.154Z,10.70
2018-04-08T00:52:27.821Z,10.70
2018-04-08T00:54:55.493Z,10.70
2018-04-08T00:57:23.149Z,10.70
2018-04-08T00:59:50.805Z,10.80
2018-04-08T01:02:18.461Z,10.40
2018-04-08T01:04:46.085Z,10.50
2018-04-08T01:07:13.700Z,10.40
2018-04-08T01:09:41.354Z,10.70
2018-04-08T01:12:09.024Z,10.40
2018-04-08T01:14:36.685Z,10.10
2018-04-08T01:17:05.030Z,10.30
2018-04-08T01:19:32.681Z,10.30
2018-04-08T01:22:00.339Z,10.40
2018-04-08T01:24:28.613Z,10.00
2018-04-08T01:26:57.284Z,10.20
2018-04-08T01:29:24.904Z,10.30
2018-04-08T01:31:52.572Z,10.40
2018-04-08T01:34:20.510Z,10.30
2018-04-08T01:36:48.136Z,10.30
2018-04-08T01:39:16.034Z,10.10
2018-04-08T01:41:43.698Z,10.10
2018-04-08T01:44:11.357Z,10.40
2018-04-08T01:46:39.748Z,10.30
2018-04-08T01:49:08.169Z,10.40
2018-04-08T01:51:36.378Z,10.30
2018-04-08T01:54:04.729Z,10.10
2018-04-08T01:56:32.362Z,10.30
2018-04-08T01:59:00.793Z,10.30
2018-04-08T02:01:28.452Z,10.00
2018-04-08T02:03:56.091Z,10.30
2018-04-08T02:06:23.711Z,10.00
2018-04-08T02:08:51.376Z,10.10
2018-04-08T02:11:19.793Z,10.30
2018-04-08T02:13:47.414Z,10.10
2018-04-08T02:16:15.061Z,9.60
2018-04-08T02:18:42.779Z,9.60
2018-04-08T02:21:10.615Z,9.70
2018-04-08T02:23:38.304Z,9.70
2018-04-08T02:26:07.094Z,9.90
2018-04-08T02:28:34.973Z,9.90
2018-04-08T02:31:02.591Z,9.90
2018-04-08T02:33:30.244Z,9.90
2018-04-08T02:35:57.914Z,9.80
2018-04-08T02:38:25.532Z,9.80
2018-04-08T02:40:53.185Z,9.70
2018-04-08T02:43:20.837Z,9.90
2018-04-08T02:45:48.461Z,9.90
2018-04-08T02:48:16.174Z,9.90
2018-04-08T02:50:43.795Z,9.60
2018-04-08T02:53:11.459Z,9.80
2018-04-08T02:55:39.078Z,9.50
2018-04-08T02:58:07.603Z,9.80
2018-04-08T03:00:35.642Z,9.70
2018-04-08T03:03:03.286Z,9.80
2018-04-08T03:05:30.966Z,9.60
2018-04-08T03:07:58.838Z,9.70
2018-04-08T03:10:26.466Z,9.80
2018-04-08T03:12:54.112Z,9.30
2018-04-08T03:15:22.338Z,9.20
2018-04-08T03:17:49.958Z,9.30
2018-04-08T03:20:18.373Z,9.10
2018-04-08T03:22:45.988Z,9.70
2018-04-08T03:25:13.645Z,9.20
2018-04-08T03:27:41.258Z,9.50
2018-04-08T03:30:08.909Z,9.10
2018-04-08T03:32:37.019Z,9.10
2018-04-08T03:35:04.677Z,9.10
2018-04-08T03:37:32.755Z,8.90
2018-04-08T03:40:00.416Z,9.00
2018-04-08T03:42:28.058Z,9.00
2018-04-08T03:44:55.677Z,8.80
2018-04-08T03:47:23.344Z,9.00
2018-04-08T03:49:50.960Z,8.80
2018-04-08T03:52:19.186Z,8.80
2018-04-08T03:54:46.817Z,8.80
2018-04-08T03:57:14.740Z,8.70
2018-04-08T03:59:42.369Z,8.80
2018-04-08T04:02:10.021Z,9.00
2018-04-08T04:04:37.636Z,8.90
2018-04-08T04:07:05.298Z,8.80
2018-04-08T04:09:32.937Z,8.80
2018-04-08T04:12:00.600Z,8.80
2018-04-08T04:14:28.251Z,8.80
2018-04-08T04:16:56.008Z,9.00
2018-04-08T04:19:35.331Z,8.80
2018-04-08T04:22:14.795Z,8.70
2018-04-08T04:24:54.396Z,8.80
2018-04-08T04:27:22.122Z,8.80
2018-04-08T04:29:51.481Z,8.80
2018-04-08T04:32:19.373Z,8.70
2018-04-08T04:34:46.993Z,8.90
2018-04-08T04:37:14.673Z,8.80
2018-04-08T04:39:42.311Z,8.80
2018-04-08T04:42:10.225Z,8.70
2018-04-08T04:44:37.861Z,8.80
2018-04-08T04:47:05.516Z,8.70
2018-04-08T04:49:33.177Z,8.80
2018-04-08T04:52:00.852Z,8.70
2018-04-08T04:54:28.612Z,8.80
2018-04-08T04:56:56.272Z,8.70
2018-04-08T04:59:23.899Z,8.80
2018-04-08T05:01:51.564Z,8.70
2018-04-08T05:04:19.369Z,8.70
2018-04-08T05:06:47.044Z,8.80
2018-04-08T05:09:14.697Z,8.80
2018-04-08T05:11:42.352Z,8.70
2018-04-08T05:14:09.965Z,8.70
2018-04-08T05:16:37.637Z,9.00
2018-04-08T05:19:05.309Z,8.70
2018-04-08T05:21:33.086Z,9.30
2018-04-08T05:24:00.701Z,9.30
2018-04-08T05:26:28.349Z,9.40
2018-04-08T05:28:56.064Z,9.20
2018-04-08T05:31:23.733Z,9.10
2018-04-08T05:33:51.393Z,9.40
2018-04-08T05:36:19.005Z,9.50
2018-04-08T05:38:47.253Z,9.50
2018-04-08T05:41:14.878Z,9.50
2018-04-08T05:43:42.541Z,9.60
2018-04-08T05:46:10.162Z,9.60
2018-04-08T05:48:38.385Z,9.70
2018-04-08T05:51:05.998Z,9.70
2018-04-08T05:53:33.705Z,10.20
2018-04-08T05:56:01.362Z,10.30
2018-04-08T05:58:29.233Z,10.10
2018-04-08T06:00:56.892Z,10.40
2018-04-08T06:03:24.744Z,10.10
2018-04-08T06:05:52.421Z,10.50
2018-04-08T06:08:20.043Z,10.50
2018-04-08T06:10:47.815Z,10.70
2018-04-08T06:13:15.470Z,10.80
2018-04-08T06:15:43.136Z,11.00
2018-04-08T06:18:11.822Z,11.00
2018-04-08T06:20:39.517Z,11.00
2018-04-08T06:23:07.177Z,11.20
2018-04-08T06:25:35.625Z,11.50
2018-04-08T06:28:03.306Z,11.20
2018-04-08T06:30:30.930Z,11.40
2018-04-08T06:32:58.544Z,11.50
2018-04-08T06:35:26.220Z,11.40
2018-04-08T06:37:53.848Z,11.50
2018-04-08T06:40:21.516Z,11.80
2018-04-08T06:42:49.447Z,11.90
2018-04-08T06:45:17.067Z,12.20
2018-04-08T06:47:44.740Z,11.90
2018-04-08T06:50:12.426Z,12.00
2018-04-08T06:52:40.189Z,12.60
2018-04-08T06:55:07.811Z,12.60
2018-04-08T06:57:35.637Z,12.40
2018-04-08T07:00:03.334Z,12.40
2018-04-08T07:02:31.159Z,12.80
2018-04-08T07:04:58.813Z,13.20
2018-04-08T07:07:26.440Z,13.20
2018-04-08T07:09:54.099Z,12.90
2018-04-08T07:12:21.785Z,13.00
2018-04-08T07:14:49.464Z,13.20
2018-04-08T07:17:17.845Z,13.20
2018-04-08T07:19:45.518Z,13.30
2018-04-08T07:22:14.176Z,13.70
2018-04-08T07:24:42.457Z,13.50
2018-04-08T07:27:10.150Z,13.60
2018-04-08T07:29:37.825Z,13.80
2018-04-08T07:32:05.468Z,13.70
2018-04-08T07:34:34.344Z,13.70
2018-04-08T07:37:02.380Z,14.10
2018-04-08T07:39:35.129Z,14.20
2018-04-08T07:42:08.767Z,14.20
2018-04-08T07:44:42.349Z,14.20
2018-04-08T07:47:17.081Z,14.80
2018-04-08T07:49:51.413Z,14.70
2018-04-08T07:52:24.194Z,14.60
2018-04-08T07:54:52.142Z,14.70
2018-04-08T07:57:19.820Z,15.00
2018-04-08T07:59:47.456Z,14.60
2018-04-08T08:02:15.141Z,14.90
2018-04-08T08:04:47.160Z,14.70
2018-04-08T08:07:15.157Z,15.40
2018-04-08T08:09:42.837Z,15.40
2018-04-08T08:12:10.597Z,15.50
2018-04-08T08:14:38.280Z,15.40
2018-04-08T08:17:05.949Z,16.00
2018-04-08T08:19:33.613Z,16.00
2018-04-08T08:22:02.417Z,16.20
2018-04-08T08:24:30.121Z,16.40
2018-04-08T08:26:57.779Z,16.40
2018-04-08T08:29:25.408Z,16.80
2018-04-08T08:31:53.088Z,16.70
2018-04-08T08:34:20.754Z,16.90
2018-04-08T08:36:48.381Z,16.80
2018-04-08T08:39:16.013Z,17.20
2018-04-08T08:41:47.623Z,17.50
2018-04-08T08:44:15.242Z,17.30
2018-04-08T08:46:43.669Z,17.50
2018-04-08T08:49:11.699Z,17.60
2018-04-08T08:51:39.381Z,17.90
2018-04-08T08:54:07.000Z,17.90
2018-04-08T08:56:34.673Z,18.30
2018-04-08T08:59:03.058Z,18.40
2018-04-08T09:01:30.704Z,18.40
2018-04-08T09:03:59.020Z,18.50
2018-04-08T09:06:26.632Z,18.50
2018-04-08T09:08:54.405Z,18.50
2018-04-08T09:11:22.793Z,18.70
2018-04-08T09:13:50.499Z,18.70
2018-04-08T09:16:18.124Z,18.60
2018-04-08T09:18:46.243Z,18.80
2018-04-08T09:21:22.156Z,18.90
2018-04-08T09:23:55.553Z,19.00
2018-04-08T09:26:23.193Z,19.00
2018-04-08T09:28:51.197Z,18.70
2018-04-08T09:31:18.859Z,19.40
2018-04-08T09:33:46.482Z,19.30
2018-04-08T09:36:14.142Z,19.30
2018-04-08T09:38:42.551Z,19.60
2018-04-08T09:41:10.452Z,19.40
2018-04-08T09:43:39.211Z,20.00
2018-04-08T09:46:07.901Z,19.70
2018-04-08T09:48:35.557Z,19.50
2018-04-08T09:51:05.734Z,19.70
2018-04-08T09:53:33.397Z,20.10
2018-04-08T09:56:01.022Z,20.30
2018-04-08T09:58:38.602Z,20.40
2018-04-08T10:04:14.686Z,20.50
2018-04-08T10:06:42.693Z,20.70
2018-04-08T10:09:15.524Z,20.40
2018-04-08T10:11:43.476Z,20.70
2018-04-08T10:14:11.902Z,20.40
2018-04-08T10:16:39.563Z,20.50
2018-04-08T10:19:07.225Z,20.60
2018-04-08T10:21:34.854Z,20.50
2018-04-08T10:24:02.529Z,20.60
2018-04-08T10:26:30.436Z,20.60
2018-04-08T10:28:58.294Z,21.10
2018-04-08T10:31:25.945Z,20.70
2018-04-08T10:33:53.657Z,21.20
2018-04-08T10:36:21.770Z,20.90
2018-04-08T10:38:52.215Z,21.10
2018-04-08T10:41:20.111Z,20.80
2018-04-08T10:43:47.749Z,20.80
2018-04-08T10:46:15.417Z,21.30
2018-04-08T10:48:43.075Z,21.30
2018-04-08T10:51:10.732Z,21.30
2018-04-08T10:53:38.391Z,21.50
2018-04-08T10:56:06.017Z,21.10
2018-04-08T10:58:34.441Z,21.60
2018-04-08T11:01:02.062Z,21.50
2018-04-08T11:03:29.726Z,21.70
2018-04-08T11:05:57.379Z,21.80
2018-04-08T11:08:25.757Z,21.80
2018-04-08T11:10:54.182Z,21.70
2018-04-08T11:13:21.804Z,21.70
2018-04-08T11:15:49.489Z,21.80
2018-04-08T11:18:17.117Z,21.70
2018-04-08T11:20:45.521Z,21.80
2018-04-08T11:23:13.205Z,21.60
2018-04-08T11:25:40.833Z,21.90
2018-04-08T11:28:09.095Z,22.00
2018-04-08T11:30:37.521Z,21.80
2018-04-08T11:33:05.191Z,21.80
2018-04-08T11:35:32.841Z,21.90
2018-04-08T11:38:00.503Z,21.90
2018-04-08T11:40:28.160Z,22.00
2018-04-08T11:42:55.829Z,22.10
2018-04-08T11:45:23.509Z,22.20
2018-04-08T11:47:51.893Z,22.30
2018-04-08T11:50:21.184Z,22.20
2018-04-08T11:52:48.851Z,22.10
2018-04-08T11:55:16.471Z,22.20
2018-04-08T11:57:44.093Z,22.20
2018-04-08T12:00:12.529Z,22.40
2018-04-08T12:02:40.379Z,22.70
2018-04-08T12:05:08.034Z,22.50
2018-04-08T12:07:36.373Z,22.60
2018-04-08T12:10:05.101Z,22.50
2018-04-08T12:12:32.729Z,22.80
2018-04-08T12:15:00.398Z,22.50
2018-04-08T12:17:28.023Z,22.40
2018-04-08T12:19:56.769Z,22.60
2018-04-08T12:22:25.686Z,22.70
2018-04-08T12:24:54.359Z,22.80
2018-04-08T12:27:22.125Z,22.60
2018-04-08T12:29:49.793Z,22.90
2018-04-08T12:32:17.645Z,23.00
2018-04-08T12:34:45.530Z,22.90
2018-04-08T12:37:13.196Z,22.80
2018-04-08T12:39:45.846Z,22.90
2018-04-08T12:42:18.329Z,23.00
2018-04-08T12:44:50.848Z,23.00
2018-04-08T12:47:18.812Z,22.90
2018-04-08T12:49:46.820Z,22.90
2018-04-08T12:52:14.796Z,23.00
2018-04-08T12:54:42.453Z,23.10
2018-04-08T12:57:10.289Z,23.10
2018-04-08T12:59:37.953Z,23.10
2018-04-08T13:02:05.614Z,23.30
2018-04-08T13:04:33.906Z,23.20
2018-04-08T13:07:01.569Z,23.30
2018-04-08T13:09:29.457Z,23.30
2018-04-08T13:11:57.096Z,23.40
2018-04-08T13:14:24.752Z,23.40
2018-04-08T13:16:57.302Z,23.40
2018-04-08T13:19:25.335Z,23.10
2018-04-08T13:21:53.016Z,23.00
2018-04-08T13:24:20.655Z,23.10
2018-04-08T13:26:50.097Z,23.20
2018-04-08T13:29:17.780Z,23.10
2018-04-08T13:31:45.457Z,23.10
2018-04-08T13:34:13.326Z,23.00
2018-04-08T13:36:40.989Z,23.10
2018-04-08T13:39:08.617Z,23.20
2018-04-08T13:41:36.303Z,23.20
2018-04-08T13:44:04.093Z,23.30
2018-04-08T13:46:32.481Z,23.30
2018-04-08T13:49:00.901Z,23.30
2018-04-08T13:51:28.520Z,23.30
2018-04-08T13:53:56.190Z,23.30
2018-04-08T13:56:23.818Z,22.90
2018-04-08T13:58:51.475Z,23.00
2018-04-08T14:01:19.136Z,23.10
2018-04-08T14:03:47.297Z,23.20
2018-04-08T14:06:14.943Z,23.40
2018-04-08T14:08:43.164Z,23.20
2018-04-08T14:11:10.848Z,23.30
2018-04-08T14:13:38.509Z,23.20
2018-04-08T14:16:06.168Z,23.20
2018-04-08T14:18:33.822Z,23.30
2018-04-08T14:21:01.439Z,23.20
2018-04-08T14:23:29.279Z,23.10
2018-04-08T14:25:56.897Z,23.20
2018-04-08T14:28:24.574Z,23.30
2018-04-08T14:30:52.238Z,23.30
2018-04-08T14:33:19.897Z,23.20
2018-04-08T14:35:47.537Z,23.20
2018-04-08T14:38:16.049Z,23.30
2018-04-08T14:40:43.673Z,23.20
2018-04-08T14:43:11.302Z,23.20
2018-04-08T14:45:38.983Z,23.40
2018-04-08T14:48:06.598Z,23.40
2018-04-08T14:50:35.052Z,23.40
2018-04-08T14:53:02.676Z,23.40
2018-04-08T14:55:31.105Z,23.30
2018-04-08T14:57:59.750Z,23.30
2018-04-08T15:00:28.448Z,23.10
2018-04-08T15:02:56.774Z,23.20
2018-04-08T15:05:25.265Z,22.80
2018-04-08T15:07:52.903Z,23.00
2018-04-08T15:10:20.580Z,23.00
2018-04-08T15:12:48.264Z,23.10
2018-04-08T15:15:15.902Z,23.10
2018-04-08T15:17:43.552Z,23.10
2018-04-08T15:20:11.204Z,23.00
2018-04-08T15:22:38.970Z,22.90
2018-04-08T15:25:06.730Z,22.70
2018-04-08T15:27:34.492Z,22.80
2018-04-08T15:30:03.629Z,22.80
2018-04-08T15:32:31.272Z,22.80
2018-04-08T15:34:59.690Z,22.70
2018-04-08T15:37:27.337Z,22.70
2018-04-08T15:39:56.072Z,22.50
2018-04-08T15:42:23.707Z,22.50
2018-04-08T15:44:51.510Z,22.40
2018-04-08T15:47:19.125Z,22.30
2018-04-08T15:49:47.485Z,22.30
2018-04-08T15:52:16.370Z,22.20
2018-04-08T15:54:43.993Z,22.00
2018-04-08T15:57:11.960Z,22.20
2018-04-08T15:59:39.813Z,22.10
2018-04-08T16:02:07.580Z,22.10
2018-04-08T16:04:35.262Z,22.00
2018-04-08T16:07:03.176Z,21.90
2018-04-08T16:09:30.805Z,21.80
2018-04-08T16:11:59.245Z,21.70
2018-04-08T16:14:26.906Z,22.00
2018-04-08T16:16:54.678Z,21.60
2018-04-08T16:19:22.302Z,21.60
2018-04-08T16:21:49.961Z,21.50
2018-04-08T16:24:17.593Z,21.50
2018-04-08T16:26:45.426Z,21.50
2018-04-08T16:29:13.082Z,21.50
2018-04-08T16:31:41.313Z,21.40
2018-04-08T16:34:08.981Z,21.50
2018-04-08T16:36:36.639Z,21.30
2018-04-08T16:39:04.549Z,21.10
2018-04-08T16:41:32.185Z,21.10
2018-04-08T16:43:59.848Z,21.00
2018-04-08T16:46:27.641Z,21.00
2018-04-08T16:48:55.992Z,20.80
2018-04-08T16:51:24.626Z,20.80
2018-04-08T16:53:53.681Z,20.80
2018-04-08T16:56:22.352Z,20.70
2018-04-08T16:58:50.667Z,20.80
2018-04-08T17:01:19.410Z,20.80
2018-04-08T17:03:47.245Z,20.80
2018-04-08T17:06:15.156Z,20.50
2018-04-08T17:08:43.228Z,20.60
2018-04-08T17:11:14.970Z,20.50
2018-04-08T17:13:42.840Z,20.40
2018-04-08T17:16:10.529Z,20.50
2018-04-08T17:18:38.192Z,20.30
2018-04-08T17:21:05.821Z,19.90
2018-04-08T17:23:33.481Z,19.90
2018-04-08T17:26:01.410Z,19.80
2018-04-08T17:28:29.000Z,19.80
2018-04-08T17:30:57.374Z,19.80
2018-04-08T17:33:25.131Z,19.70
2018-04-08T17:35:53.271Z,19.50
2018-04-08T17:38:21.707Z,19.30
2018-04-08T17:40:49.521Z,19.30
2018-04-08T17:43:17.251Z,19.00
2018-04-08T17:45:45.669Z,18.90
2018-04-08T17:48:13.328Z,18.90
2018-04-08T17:50:40.952Z,19.00
2018-04-08T17:53:08.607Z,18.80
2018-04-08T17:55:37.260Z,18.70
2018-04-08T17:58:04.932Z,18.50
2018-04-08T18:00:32.913Z,18.70
2018-04-08T18:03:02.091Z,18.50
2018-04-08T18:05:30.154Z,18.90
2018-04-08T18:07:58.632Z,18.30
2018-04-08T18:10:26.309Z,18.30
2018-04-08T18:12:53.928Z,18.10
2018-04-08T18:15:21.610Z,18.10
2018-04-08T18:17:49.242Z,18.10
2018-04-08T18:20:16.954Z,18.00
2018-04-08T18:22:44.718Z,18.00
2018-04-08T18:25:12.390Z,18.10
2018-04-08T18:27:40.332Z,18.00
2018-04-08T18:30:07.986Z,17.90
2018-04-08T18:32:35.774Z,17.90
2018-04-08T18:35:03.425Z,17.80
2018-04-08T18:37:31.083Z,17.80
2018-04-08T18:40:01.477Z,17.80
2018-04-08T18:42:31.108Z,17.80
2018-04-08T18:44:58.720Z,17.80
2018-04-08T18:47:26.381Z,17.70
2018-04-08T18:49:55.817Z,17.40
2018-04-08T18:52:26.737Z,17.50
2018-04-08T18:54:54.617Z,17.70
2018-04-08T18:57:23.321Z,17.20
2018-04-08T18:59:50.942Z,17.30
2018-04-08T19:02:18.553Z,17.30
2018-04-08T19:04:46.209Z,17.10
2018-04-08T19:07:13.843Z,17.30
2018-04-08T19:09:41.503Z,17.20
2018-04-08T19:12:09.151Z,17.10
2018-04-08T19:14:42.374Z,17.00
2018-04-08T19:20:05.969Z,17.10
2018-04-08T19:22:33.898Z,16.80
2018-04-08T19:25:01.869Z,16.80
2018-04-08T19:27:35.465Z,16.40
2018-04-08T19:30:03.145Z,17.10
2018-04-08T19:32:30.809Z,16.50
2018-04-08T19:34:58.500Z,16.30
2018-04-08T19:37:26.230Z,16.30
2018-04-08T19:39:53.852Z,16.30
2018-04-08T19:42:21.511Z,16.40
2018-04-08T19:44:49.133Z,16.30
2018-04-08T19:47:16.875Z,16.30
2018-04-08T19:49:44.497Z,16.20
2018-04-08T19:52:12.149Z,15.80
2018-04-08T19:54:39.801Z,15.90
2018-04-08T19:57:07.423Z,15.80
2018-04-08T19:59:35.086Z,16.10
2018-04-08T20:02:02.705Z,16.20
2018-04-08T20:04:30.423Z,16.00
2018-04-08T20:06:58.019Z,16.10
2018-04-08T20:09:25.704Z,16.10
2018-04-08T20:11:53.324Z,16.10
2018-04-08T20:14:21.745Z,15.70
2018-04-08T20:16:49.421Z,15.70
2018-04-08T20:19:17.742Z,15.70
2018-04-08T20:21:45.409Z,15.70
2018-04-08T20:24:13.033Z,15.70
2018-04-08T20:26:40.666Z,15.60
2018-04-08T20:29:08.323Z,15.50
2018-04-08T20:31:36.584Z,15.60
2018-04-08T20:34:04.254Z,15.50
2018-04-08T20:36:31.874Z,15.50
2018-04-08T20:39:00.310Z,15.00
2018-04-08T20:41:27.928Z,15.30
2018-04-08T20:43:55.581Z,15.20
2018-04-08T20:46:23.244Z,15.20
2018-04-08T20:48:50.937Z,15.20
2018-04-08T20:51:18.600Z,15.10
2018-04-08T20:53:46.225Z,15.00
2018-04-08T20:56:13.885Z,14.80
2018-04-08T20:58:41.523Z,15.10
2018-04-08T21:01:09.949Z,15.00
2018-04-08T21:03:37.582Z,15.20
2018-04-08T21:06:05.241Z,15.10
2018-04-08T21:08:32.886Z,14.80
2018-04-08T21:11:00.552Z,15.00
2018-04-08T21:13:28.165Z,14.70
2018-04-08T21:15:55.824Z,15.00
2018-04-08T21:18:23.452Z,14.80
2018-04-08T21:20:51.153Z,14.50
2018-04-08T21:23:19.265Z,15.00
2018-04-08T21:25:47.683Z,14.60
2018-04-08T21:28:15.301Z,14.50
2018-04-08T21:30:42.958Z,14.40
2018-04-08T21:33:10.617Z,14.40
2018-04-08T21:35:39.002Z,14.30
2018-04-08T21:38:06.685Z,14.50
2018-04-08T21:40:34.793Z,14.20
2018-04-08T21:43:02.730Z,14.20
2018-04-08T21:45:30.621Z,14.20
2018-04-08T21:47:58.244Z,14.20
2018-04-08T21:50:26.352Z,14.20
2018-04-08T21:52:54.028Z,14.20
2018-04-08T21:55:22.613Z,14.20
2018-04-08T21:57:50.273Z,14.10
2018-04-08T22:00:18.722Z,14.10
2018-04-08T22:02:46.336Z,14.10
2018-04-08T22:05:13.972Z,13.80
2018-04-08T22:07:41.636Z,13.70
2018-04-08T22:10:09.260Z,13.70
2018-04-08T22:12:36.914Z,13.70
2018-04-08T22:15:04.699Z,13.70
2018-04-08T22:17:32.384Z,13.80
2018-04-08T22:20:00.045Z,14.00
2018-04-08T22:22:27.709Z,13.70
2018-04-08T22:24:56.142Z,14.00
2018-04-08T22:27:23.761Z,13.80
2018-04-08T22:29:52.060Z,14.10
2018-04-08T22:32:19.925Z,13.70
2018-04-08T22:34:47.599Z,14.00
2018-04-08T22:37:15.259Z,13.80
2018-04-08T22:39:42.929Z,13.80
2018-04-08T22:42:10.574Z,13.70
2018-04-08T22:44:38.206Z,13.70
2018-04-08T22:47:06.009Z,13.60
2018-04-08T22:49:33.625Z,13.70
2018-04-08T22:52:02.053Z,13.80
2018-04-08T22:54:29.672Z,13.50
2018-04-08T22:56:57.361Z,13.70
2018-04-08T22:59:24.998Z,13.60
2018-04-08T23:01:53.254Z,13.70
2018-04-08T23:04:21.678Z,13.60
2018-04-08T23:06:49.334Z,13.40
2018-04-08T23:09:17.016Z,13.30
2018-04-08T23:11:44.678Z,13.30
2018-04-08T23:14:12.324Z,13.30
2018-04-08T23:16:39.989Z,13.30
2018-04-08T23:19:07.613Z,13.30
2018-04-08T23:21:35.270Z,13.30
2018-04-08T23:24:02.946Z,13.40
2018-04-08T23:26:30.572Z,13.10
2018-04-08T23:28:58.253Z,13.30
2018-04-08T23:31:25.865Z,13.20
2018-04-08T23:33:53.521Z,13.20
2018-04-08T23:36:21.182Z,13.30
2018-04-08T23:38:48.848Z,13.10
2018-04-08T23:41:16.504Z,13.20
2018-04-08T23:43:44.116Z,13.20
2018-04-08T23:46:11.765Z,13.20
2018-04-08T23:48:39.418Z,13.20
2018-04-08T23:51:07.833Z,12.90
2018-04-08T23:53:35.457Z,12.90
2018-04-08T23:56:03.137Z,13.20
2018-04-08T23:58:30.753Z,13.20
